Time;durP1;ratioP1;P1;durP2;ratioP2;P2;SDS_P1;SDS_P2;PMS_P1;PMS_P2;Temp;Humidity;BMP_temperature;BMP_pressure;BME280_temperature;BME280_humidity;BME280_pressure;Samples;Min_cycle;Max_cycle;Signal;HPM_P1;HPM_P2
2023/01/03 00:40:24;;;;;;;;;;;;;;;;;;6216373;22;19924;-95
2023/01/03 00:45:34;;;;;;;;;;;;;;;;;;5015680;28;19921;-95
2023/01/03 00:48:00;;;;;;;;;;;;;;;;;;5008081;28;19927;-96
2023/01/03 00:50:34;;;;;;;;;;;;;;;;;;5023666;28;19974;-95
2023/01/03 00:53:08;;;;;;;;;;;;;;;;;;5022718;28;20011;-94
2023/01/03 00:55:49;;;;;;;;;;;;;;;;;;5039821;28;19921;-94
2023/01/03 00:58:18;;;;;;;;;;;;;;;;;;5039445;28;19970;-96
2023/01/03 01:00:44;;;;;;;;;;;;;;;;;;5023231;28;19921;-96
2023/01/03 01:03:10;;;;;;;;;;;;;;;;;;5023160;28;19921;-96
2023/01/03 01:05:36;;;;;;;;;;;;;;;;;;5039498;28;20015;-96
2023/01/03 01:08:02;;;;;;;;;;;;;;;;;;5023306;28;19920;-96
2023/01/03 01:10:31;;;;;;;;;;;;;;;;;;5059809;28;19930;-96
2023/01/03 01:13:15;;;;;;;;;;;;;;;;;;5025078;28;19929;-96
2023/01/03 01:15:43;;;;;;;;;;;;;;;;;;5058636;28;19925;-96
2023/01/03 01:18:12;;;;;;;;;;;;;;;;;;5040331;28;19921;-96
2023/01/03 01:20:54;;;;;;;;;;;;;;;;;;5033919;28;19931;-96
2023/01/03 01:23:26;;;;;;;;;;;;;;;;;;5042017;28;19924;-96
2023/01/03 01:25:58;;;;;;;;;;;;;;;;;;5039372;28;19921;-96
2023/01/03 01:28:24;;;;;;;;;;;;;;;;;;5023174;28;20298;-96
2023/01/03 01:30:52;;;;;;;;;;;;;;;;;;5022064;28;19968;-96
2023/01/03 01:33:30;;;;;;;;;;;;;;;;;;5038703;28;20379;-96
2023/01/03 01:36:21;;;;;;;;;;;;;;;;;;5038516;28;19927;-96
2023/01/03 01:38:50;;;;;;;;;;;;;;;;;;5021828;28;19920;-96
2023/01/03 01:50:24;;;;;;;;;;;;;;;;;;5573716;22;20312;-96
2023/01/03 01:52:54;;;;;;;;;;;;;;;;;;5040608;28;19931;-96
2023/01/03 01:55:22;;;;;;;;;;;;;;;;;;5040970;28;19928;-96
2023/01/03 01:58:08;;;;;;;;;;;;;;;;;;;;;
2023/01/03 02:16:29;;;;;;;;;;;;;;;;;;5249437;22;20398;-96
2023/01/03 02:18:55;;;;;;;;;;;;;;;;;;5054078;28;19936;-96
2023/01/03 02:21:21;;;;;;;;;;;;;;;;;;5038238;28;20030;-96
2023/01/03 02:24:05;;;;;;;;;;;;;;;;;;5075892;28;19921;-96
2023/01/03 02:29:47;;;;;;;;;;;;;;;;;;5491902;22;19929;-95
2023/01/03 02:32:32;;;;;;;;;;;;;;;;;;;;;
2023/01/03 02:38:33;;;;;;;;;;;;;;;;;;5019609;28;19928;-96
2023/01/03 02:41:22;;;;;;;;;;;;;;;;;;5009574;28;20070;-96
2023/01/03 02:44:12;;;;;;;;;;;;;;;;;;5007171;28;19945;-96
2023/01/03 05:09:37;;;;;;;;;;;;;;;;;;5693212;22;20342;-96
2023/01/03 05:12:03;;;;;;;;;;;;;;;;;;5015156;28;19979;-96
2023/01/03 05:14:40;;;;;;;;;;;;;;;;;;5017906;28;19922;-96
2023/01/03 05:17:08;;;;;;;;;;;;;;;;;;5014586;28;19925;-96
2023/01/03 05:28:09;;;;;;;;;;;;;;;;;;5015501;28;20418;-96
2023/01/03 05:30:39;;;;;;;;;;;;;;;;;;5016736;28;19921;-96
2023/01/03 05:33:06;;;;;;;;;;;;;;;;;;5033219;28;19921;-96
2023/01/03 05:35:32;;;;;;;;;;;;;;;;;;5020177;28;19925;-96
2023/01/03 05:37:58;;;;;;;;;;;;;;;;;;5071441;23;19968;-96
2023/01/03 05:40:30;;;;;;;;;;;;;;;;;;5000515;28;19929;-96
2023/01/03 05:43:10;;;;;;;;;;;;;;;;;;;;;
2023/01/03 05:45:50;;;;;;;;;;;;;;;;;;5002801;28;20289;-96
2023/01/03 05:48:19;;;;;;;;;;;;;;;;;;5013158;28;19922;-96
2023/01/03 05:50:57;;;;;;;;;;;;;;;;;;5013219;28;20400;-96
2023/01/03 05:53:29;;;;;;;;;;;;;;;;;;4993070;28;19931;-96
2023/01/03 05:56:02;;;;;;;;;;;;;;;;;;4996840;28;20011;-96
2023/01/03 06:55:32;;;;;;;;;;;;;;;;;;5018442;28;20471;-96
2023/01/03 06:58:02;;;;;;;;;;;;;;;;;;5022016;28;19919;-96
2023/01/03 07:03:36;;;;;;;;;;;;;;;;;;5862185;22;19930;-94
2023/01/03 07:06:02;;;;;;;;;;;;;;;;;;5001368;28;19936;-93
2023/01/03 07:08:27;;;;;;;;;;;;;;;;;;5001023;28;20279;-94
2023/01/03 07:10:56;;;;;;;;;;;;;;;;;;5016865;28;19967;-94
2023/01/03 07:16:10;;;;;;;;;;;;;;;;;;5017786;28;19979;-93
2023/01/03 07:18:36;;;;;;;;;;;;;;;;;;5003249;28;19921;-96
2023/01/03 07:21:05;;;;;;;;;;;;;;;;;;5002350;28;20016;-94
2023/01/03 07:23:32;;;;;;;;;;;;;;;;;;5004218;28;19975;-92
2023/01/03 07:26:04;;;;;;;;;;;;;;;;;;5002738;28;20467;-96
2023/01/03 07:28:32;;;;;;;;;;;;;;;;;;5019787;28;20288;-96
2023/01/03 07:33:58;;;;;;;;;;;;;;;;;;5034804;28;19928;-94
2023/01/03 07:36:26;;;;;;;;;;;;;;;;;;5033318;28;20376;-96
2023/01/03 07:38:52;;;;;;;;;;;;;;;;;;5005872;28;19977;-96
2023/01/03 07:41:18;;;;;;;;;;;;;;;;;;5002449;28;19921;-96
2023/01/03 07:43:49;;;;;;;;;;;;;;;;;;5007724;28;19928;-96
2023/01/03 08:00:10;;;;;;;;;;;;;;;;;;5052258;28;19925;-95
2023/01/03 08:02:45;;;;;;;;;;;;;;;;;;5037079;28;19921;-93
2023/01/03 08:05:11;;;;;;;;;;;;;;;;;;5021233;28;19943;-93
2023/01/03 08:07:44;;;;;;;;;;;;;;;;;;5038151;28;20148;-93
2023/01/03 08:15:40;;;;;;;;;;;;;;;;;;5048131;28;19972;-95
2023/01/03 08:18:24;;;;;;;;;;;;;;;;;;5020167;28;19928;-95
2023/01/03 08:20:54;;;;;;;;;;;;;;;;;;5019163;28;19975;-96
2023/01/03 08:23:56;;;;;;;;;;;;;;;;;;5037461;28;19928;-96
2023/01/03 08:28:56;;;;;;;;;;;;;;;;;;5055799;22;19925;-96
2023/01/03 08:31:21;;;;;;;;;;;;;;;;;;5000026;28;19921;-92
2023/01/03 08:33:47;;;;;;;;;;;;;;;;;;5003325;28;20370;-96
2023/01/03 08:36:19;;;;;;;;;;;;;;;;;;5001529;28;20386;-94
2023/01/03 08:38:50;;;;;;;;;;;;;;;;;;5013322;28;19983;-96
2023/01/03 08:41:16;;;;;;;;;;;;;;;;;;5033161;28;19921;-96
2023/01/03 08:43:54;;;;;;;;;;;;;;;;;;5001286;28;19928;-96
2023/01/03 08:46:31;;;;;;;;;;;;;;;;;;5011371;28;19951;-96
2023/01/03 08:49:10;;;;;;;;;;;;;;;;;;5001941;28;19921;-96
2023/01/03 08:57:10;;;;;;;;;;;;;;;;;;5201262;22;20293;-95
2023/01/03 08:59:36;;;;;;;;;;;;;;;;;;4961874;28;19929;-96
2023/01/03 09:02:02;;;;;;;;;;;;;;;;;;4961883;28;20285;-96
2023/01/03 09:04:30;;;;;;;;;;;;;;;;;;4961601;28;19925;-96
2023/01/03 09:06:56;;;;;;;;;;;;;;;;;;4976000;28;20373;-95
2023/01/03 09:09:29;;;;;;;;;;;;;;;;;;4961162;28;19922;-96
2023/01/03 09:11:58;;;;;;;;;;;;;;;;;;4965129;28;19933;-96
2023/01/03 09:17:34;;;;;;;;;;;;;;;;;;4996321;28;19929;-96
2023/01/03 09:20:00;;;;;;;;;;;;;;;;;;4964632;28;20288;-95
2023/01/03 09:22:26;;;;;;;;;;;;;;;;;;4964195;28;19928;-96
2023/01/03 09:24:55;;;;;;;;;;;;;;;;;;4964866;28;20009;-96
2023/01/03 09:27:24;;;;;;;;;;;;;;;;;;4964949;28;20008;-95
2023/01/03 09:29:51;;;;;;;;;;;;;;;;;;4964166;28;19921;-95
2023/01/03 09:32:37;;;;;;;;;;;;;;;;;;4980135;28;19933;-94
2023/01/03 09:35:04;;;;;;;;;;;;;;;;;;4965191;28;19926;-95
2023/01/03 09:41:02;;;;;;;;;;;;;;;;;;4979475;28;19957;-96
2023/01/03 09:43:40;;;;;;;;;;;;;;;;;;4964156;28;20309;-96
2023/01/03 09:49:13;;;;;;;;;;;;;;;;;;4997227;28;20423;-93
2023/01/03 10:05:35;;;;;;;;;;;;;;;;;;5016388;28;19926;-93
2023/01/03 10:08:04;;;;;;;;;;;;;;;;;;4983349;28;19926;-94
2023/01/03 10:10:49;;;;;;;;;;;;;;;;;;4983537;28;19985;-95
2023/01/03 10:13:16;;;;;;;;;;;;;;;;;;4982941;28;20407;-95
2023/01/03 10:15:47;;;;;;;;;;;;;;;;;;4983674;28;20376;-96
2023/01/03 10:18:16;;;;;;;;;;;;;;;;;;4983175;28;19932;-96
2023/01/03 10:20:48;;;;;;;;;;;;;;;;;;4998681;28;19921;-96
2023/01/03 10:23:58;;;;;;;;;;;;;;;;;;5370545;23;19932;-96
2023/01/03 10:26:37;;;;;;;;;;;;;;;;;;5005627;28;19928;-95
2023/01/03 10:34:30;;;;;;;;;;;;;;;;;;5538723;22;20296;-96
2023/01/03 10:37:02;;;;;;;;;;;;;;;;;;5007415;28;20014;-96
2023/01/03 10:42:34;;;;;;;;;;;;;;;;;;5023105;28;19936;-96
2023/01/03 10:58:49;;;;;;;;;;;;;;;;;;5883759;22;20311;-95
2023/01/03 11:04:21;;;;;;;;;;;;;;;;;;5041010;28;19925;-95
2023/01/03 11:07:03;;;;;;;;;;;;;;;;;;5024383;28;20376;-94
2023/01/03 11:09:32;;;;;;;;;;;;;;;;;;5018612;28;19921;-94
2023/01/03 11:12:02;;;;;;;;;;;;;;;;;;5019111;28;20264;-93
2023/01/03 11:14:39;;;;;;;;;;;;;;;;;;5003023;28;19932;-96
2023/01/03 11:17:08;;;;;;;;;;;;;;;;;;5002181;28;19971;-94
2023/01/03 11:19:34;;;;;;;;;;;;;;;;;;5001993;28;19972;-93
2023/01/03 11:22:00;;;;;;;;;;;;;;;;;;5003671;28;19928;-95
2023/01/03 11:24:26;;;;;;;;;;;;;;;;;;5000824;28;19921;-95
2023/01/03 11:26:52;;;;;;;;;;;;;;;;;;5001000;28;19925;-95
2023/01/03 11:29:18;;;;;;;;;;;;;;;;;;5002285;28;19921;-96
2023/01/03 11:32:00;;;;;;;;;;;;;;;;;;5019855;28;20032;-96
2023/01/03 11:35:06;;;;;;;;;;;;;;;;;;5044242;28;19944;-96
2023/01/03 11:38:09;;;;;;;;;;;;;;;;;;5458438;22;20024;-93
2023/01/03 11:40:38;;;;;;;;;;;;;;;;;;5017105;28;19990;-94
2023/01/03 11:46:09;;;;;;;;;;;;;;;;;;5056102;28;19936;-92
2023/01/03 11:48:35;;;;;;;;;;;;;;;;;;5010146;28;19984;-91
2023/01/03 11:51:07;;;;;;;;;;;;;;;;;;5001614;28;19921;-93
2023/01/03 11:53:36;;;;;;;;;;;;;;;;;;5017087;28;19920;-93
2023/01/03 11:56:02;;;;;;;;;;;;;;;;;;5000055;28;20462;-92
2023/01/03 11:58:28;;;;;;;;;;;;;;;;;;5016056;28;20268;-93
2023/01/03 12:00:59;;;;;;;;;;;;;;;;;;5016646;28;19921;-92
2023/01/03 12:03:26;;;;;;;;;;;;;;;;;;5014694;28;19921;-92
2023/01/03 12:05:55;;;;;;;;;;;;;;;;;;5000061;28;19936;-92
2023/01/03 12:08:21;;;;;;;;;;;;;;;;;;5000237;28;19921;-95
2023/01/03 12:10:52;;;;;;;;;;;;;;;;;;4998254;28;19921;-94
2023/01/03 12:13:22;;;;;;;;;;;;;;;;;;5032903;28;19927;-93
2023/01/03 12:15:51;;;;;;;;;;;;;;;;;;4999765;28;20296;-93
2023/01/03 12:18:21;;;;;;;;;;;;;;;;;;5016149;28;20387;-93
2023/01/03 12:20:55;;;;;;;;;;;;;;;;;;5000857;28;19925;-94
2023/01/03 12:23:26;;;;;;;;;;;;;;;;;;5000810;28;19921;-94
2023/01/03 12:26:05;;;;;;;;;;;;;;;;;;5033805;28;19921;-93
2023/01/03 12:28:35;;;;;;;;;;;;;;;;;;5000037;28;19964;-93
2023/01/03 12:31:01;;;;;;;;;;;;;;;;;;5000075;28;19921;-94
2023/01/03 12:33:29;;;;;;;;;;;;;;;;;;4999197;28;19980;-93
2023/01/03 12:35:56;;;;;;;;;;;;;;;;;;5016070;28;19972;-94
2023/01/03 12:38:25;;;;;;;;;;;;;;;;;;4999380;28;19931;-93
2023/01/03 12:40:51;;;;;;;;;;;;;;;;;;4999259;28;19921;-94
2023/01/03 12:43:17;;;;;;;;;;;;;;;;;;5015853;28;19925;-94
2023/01/03 12:45:43;;;;;;;;;;;;;;;;;;5002996;28;19921;-95
2023/01/03 12:48:12;;;;;;;;;;;;;;;;;;5004306;28;19925;-94
2023/01/03 12:50:42;;;;;;;;;;;;;;;;;;5037720;28;20391;-93
2023/01/03 12:53:12;;;;;;;;;;;;;;;;;;5003413;28;19928;-93
2023/01/03 12:55:38;;;;;;;;;;;;;;;;;;5002721;28;19932;-95
2023/01/03 12:58:04;;;;;;;;;;;;;;;;;;5003137;28;19951;-95
2023/01/03 13:00:30;;;;;;;;;;;;;;;;;;5002820;28;20051;-95
2023/01/03 13:02:56;;;;;;;;;;;;;;;;;;5003395;28;19948;-94
2023/01/03 13:05:22;;;;;;;;;;;;;;;;;;5004180;28;19921;-93
2023/01/03 13:07:49;;;;;;;;;;;;;;;;;;5002876;28;20011;-93
2023/01/03 13:13:19;;;;;;;;;;;;;;;;;;5037561;28;19921;-95
2023/01/03 13:15:47;;;;;;;;;;;;;;;;;;5008764;28;19925;-96
2023/01/03 13:18:17;;;;;;;;;;;;;;;;;;5022946;28;19928;-95
2023/01/03 13:20:46;;;;;;;;;;;;;;;;;;5019408;28;19928;-96
2023/01/03 13:26:19;;;;;;;;;;;;;;;;;;5201037;22;19925;-94
2023/01/03 13:28:56;;;;;;;;;;;;;;;;;;5020172;28;20279;-92
2023/01/03 13:31:31;;;;;;;;;;;;;;;;;;5019335;28;20019;-91
2023/01/03 13:33:57;;;;;;;;;;;;;;;;;;5001973;28;20020;-91
2023/01/03 13:36:26;;;;;;;;;;;;;;;;;;5002318;28;19921;-91
2023/01/03 13:38:52;;;;;;;;;;;;;;;;;;5017852;28;19979;-88
2023/01/03 13:41:18;;;;;;;;;;;;;;;;;;5001940;28;19921;-91
2023/01/03 13:43:44;;;;;;;;;;;;;;;;;;5001074;28;19921;-92
2023/01/03 13:46:13;;;;;;;;;;;;;;;;;;5017849;28;19990;-92
2023/01/03 13:48:39;;;;;;;;;;;;;;;;;;5001709;28;19925;-92
2023/01/03 13:51:06;;;;;;;;;;;;;;;;;;5001646;28;20387;-91
2023/01/03 13:53:34;;;;;;;;;;;;;;;;;;5001040;28;20344;-92
2023/01/03 13:56:01;;;;;;;;;;;;;;;;;;5000420;28;19925;-92
2023/01/03 13:58:27;;;;;;;;;;;;;;;;;;5001342;28;19928;-92
2023/01/03 14:01:04;;;;;;;;;;;;;;;;;;5005770;28;19929;-96
2023/01/03 14:03:42;;;;;;;;;;;;;;;;;;4989089;28;19956;-96
2023/01/03 14:06:17;;;;;;;;;;;;;;;;;;5016555;28;19921;-96
2023/01/03 14:08:54;;;;;;;;;;;;;;;;;;5022507;28;19922;-96
2023/01/03 14:11:22;;;;;;;;;;;;;;;;;;5004437;28;19927;-96
2023/01/03 14:13:51;;;;;;;;;;;;;;;;;;5021634;28;19928;-96
2023/01/03 14:16:18;;;;;;;;;;;;;;;;;;5021843;28;20011;-96
2023/01/03 14:18:53;;;;;;;;;;;;;;;;;;5005072;28;20351;-96
2023/01/03 14:21:21;;;;;;;;;;;;;;;;;;5018709;28;19921;-92
2023/01/03 14:23:47;;;;;;;;;;;;;;;;;;5001020;28;19976;-92
2023/01/03 14:26:13;;;;;;;;;;;;;;;;;;5001426;28;20284;-93
2023/01/03 14:28:38;;;;;;;;;;;;;;;;;;5001252;28;19921;-92
2023/01/03 14:31:04;;;;;;;;;;;;;;;;;;5001138;28;19928;-92
2023/01/03 14:33:30;;;;;;;;;;;;;;;;;;5776562;22;19942;-95
2023/01/03 14:35:59;;;;;;;;;;;;;;;;;;5000452;28;19926;-95
2023/01/03 14:38:37;;;;;;;;;;;;;;;;;;4999001;28;20311;-95
2023/01/03 14:41:03;;;;;;;;;;;;;;;;;;5000086;28;19925;-91
2023/01/03 14:43:31;;;;;;;;;;;;;;;;;;5015419;28;19928;-93
2023/01/03 14:45:57;;;;;;;;;;;;;;;;;;4997362;28;19928;-89
2023/01/03 14:48:22;;;;;;;;;;;;;;;;;;5012805;28;20299;-89
2023/01/03 14:50:48;;;;;;;;;;;;;;;;;;4996715;28;19928;-88
2023/01/03 14:53:14;;;;;;;;;;;;;;;;;;5013213;28;19928;-89
2023/01/03 14:55:40;;;;;;;;;;;;;;;;;;4997007;28;19941;-89
2023/01/03 14:58:06;;;;;;;;;;;;;;;;;;4997047;28;19927;-89
2023/01/03 15:00:32;;;;;;;;;;;;;;;;;;4996934;28;20364;-89
2023/01/03 15:02:58;;;;;;;;;;;;;;;;;;4996748;28;19929;-89
2023/01/03 15:05:24;;;;;;;;;;;;;;;;;;4996868;28;20027;-90
2023/01/03 15:07:50;;;;;;;;;;;;;;;;;;5012683;28;19968;-89
2023/01/03 15:10:16;;;;;;;;;;;;;;;;;;5013132;28;19976;-88
2023/01/03 15:12:41;;;;;;;;;;;;;;;;;;4996515;28;20063;-89
2023/01/03 15:15:07;;;;;;;;;;;;;;;;;;5012915;28;19925;-89
2023/01/03 15:17:33;;;;;;;;;;;;;;;;;;5012818;28;19925;-89
2023/01/03 15:20:00;;;;;;;;;;;;;;;;;;4996317;28;19921;-89
2023/01/03 15:22:28;;;;;;;;;;;;;;;;;;4995812;28;19921;-89
2023/01/03 15:24:53;;;;;;;;;;;;;;;;;;5012605;28;19976;-89
2023/01/03 15:27:19;;;;;;;;;;;;;;;;;;5012592;28;19922;-90
2023/01/03 15:29:46;;;;;;;;;;;;;;;;;;4996251;28;20326;-89
2023/01/03 15:32:12;;;;;;;;;;;;;;;;;;5012589;28;19922;-89
2023/01/03 15:34:38;;;;;;;;;;;;;;;;;;5012400;28;19999;-89
2023/01/03 15:37:04;;;;;;;;;;;;;;;;;;5012686;28;20265;-89
2023/01/03 15:39:30;;;;;;;;;;;;;;;;;;5012651;28;19976;-89
2023/01/03 15:44:41;;;;;;;;;;;;;;;;;;4996060;28;19930;-89
2023/01/03 15:47:07;;;;;;;;;;;;;;;;;;4995709;28;19948;-89
2023/01/03 15:49:33;;;;;;;;;;;;;;;;;;5012208;28;19921;-89
2023/01/03 15:51:58;;;;;;;;;;;;;;;;;;5012149;28;19967;-89
2023/01/03 15:54:25;;;;;;;;;;;;;;;;;;4995647;28;19925;-89
2023/01/03 15:56:51;;;;;;;;;;;;;;;;;;4995923;28;19971;-89
2023/01/03 15:59:18;;;;;;;;;;;;;;;;;;5012065;28;20008;-90
2023/01/03 16:01:44;;;;;;;;;;;;;;;;;;4995748;28;19926;-89
2023/01/03 16:04:10;;;;;;;;;;;;;;;;;;4995775;28;19927;-89
2023/01/03 16:06:36;;;;;;;;;;;;;;;;;;5011886;28;20294;-89
2023/01/03 16:09:01;;;;;;;;;;;;;;;;;;5011834;28;19928;-89
2023/01/03 16:11:27;;;;;;;;;;;;;;;;;;4995667;28;19929;-89
2023/01/03 16:13:53;;;;;;;;;;;;;;;;;;4995704;28;19925;-89
2023/01/03 16:16:19;;;;;;;;;;;;;;;;;;5011722;28;20392;-89
2023/01/03 16:18:47;;;;;;;;;;;;;;;;;;4994768;28;19925;-89
2023/01/03 16:21:13;;;;;;;;;;;;;;;;;;4995448;28;20423;-89
2023/01/03 16:23:39;;;;;;;;;;;;;;;;;;4995793;28;19925;-89
2023/01/03 16:26:06;;;;;;;;;;;;;;;;;;5012029;28;20012;-89
2023/01/03 16:28:32;;;;;;;;;;;;;;;;;;4995508;28;19979;-89
2023/01/03 16:30:58;;;;;;;;;;;;;;;;;;4995152;28;19922;-89
2023/01/03 16:33:24;;;;;;;;;;;;;;;;;;4995110;28;19922;-88
2023/01/03 16:35:50;;;;;;;;;;;;;;;;;;5011599;28;20222;-89
2023/01/03 16:38:17;;;;;;;;;;;;;;;;;;4995303;28;19922;-89
2023/01/03 16:40:43;;;;;;;;;;;;;;;;;;4995245;28;20008;-89
2023/01/03 16:43:08;;;;;;;;;;;;;;;;;;5011458;28;19963;-89
2023/01/03 16:45:34;;;;;;;;;;;;;;;;;;4994997;28;20028;-89
2023/01/03 16:48:00;;;;;;;;;;;;;;;;;;4995032;28;20341;-89
2023/01/03 16:50:26;;;;;;;;;;;;;;;;;;4995342;28;19979;-90
2023/01/03 16:52:52;;;;;;;;;;;;;;;;;;5011639;28;19928;-88
2023/01/03 16:55:18;;;;;;;;;;;;;;;;;;4995092;28;19929;-89
2023/01/03 16:57:44;;;;;;;;;;;;;;;;;;5011373;28;19985;-89
2023/01/03 17:00:10;;;;;;;;;;;;;;;;;;5011243;28;20030;-89
2023/01/03 17:02:36;;;;;;;;;;;;;;;;;;4994793;28;20304;-89
2023/01/03 17:05:02;;;;;;;;;;;;;;;;;;4995443;28;19921;-89
2023/01/03 17:07:27;;;;;;;;;;;;;;;;;;4994802;28;19921;-89
2023/01/03 17:09:53;;;;;;;;;;;;;;;;;;5011758;28;19925;-89
2023/01/03 17:12:19;;;;;;;;;;;;;;;;;;4995165;28;20364;-89
2023/01/03 17:14:45;;;;;;;;;;;;;;;;;;4994902;28;19980;-89
2023/01/03 17:17:11;;;;;;;;;;;;;;;;;;4994629;28;19929;-89
2023/01/03 17:19:37;;;;;;;;;;;;;;;;;;5011062;28;20020;-89
2023/01/03 17:22:03;;;;;;;;;;;;;;;;;;4995055;28;20340;-89
2023/01/03 17:24:29;;;;;;;;;;;;;;;;;;4994789;28;20387;-89
2023/01/03 17:26:55;;;;;;;;;;;;;;;;;;5011200;28;19929;-89
2023/01/03 17:29:21;;;;;;;;;;;;;;;;;;5010632;28;19922;-89
2023/01/03 17:31:46;;;;;;;;;;;;;;;;;;5013940;28;20288;-89
2023/01/03 17:34:12;;;;;;;;;;;;;;;;;;4994562;28;19926;-89
2023/01/03 17:36:39;;;;;;;;;;;;;;;;;;4978579;28;19944;-89
2023/01/03 17:39:05;;;;;;;;;;;;;;;;;;4994740;28;19928;-89
2023/01/03 17:42:11;;;;;;;;;;;;;;;;;;4994817;28;20020;-89
2023/01/03 17:44:17;;;;;;;;;;;;;;;;;;4994802;28;19944;-89
2023/01/03 17:49:27;;;;;;;;;;;;;;;;;;4994759;28;19921;-89
2023/01/03 17:51:53;;;;;;;;;;;;;;;;;;4978448;28;20300;-88
2023/01/03 17:54:19;;;;;;;;;;;;;;;;;;4994576;28;20144;-89
2023/01/03 17:56:46;;;;;;;;;;;;;;;;;;4978375;28;19955;-88
2023/01/03 17:59:13;;;;;;;;;;;;;;;;;;4978148;28;19926;-89
2023/01/03 18:01:40;;;;;;;;;;;;;;;;;;4994363;28;19922;-88
2023/01/03 18:04:06;;;;;;;;;;;;;;;;;;4994479;28;19922;-89
2023/01/03 18:06:32;;;;;;;;;;;;;;;;;;4994144;28;19929;-88
2023/01/03 18:08:58;;;;;;;;;;;;;;;;;;4994052;28;20020;-89
2023/01/03 18:11:24;;;;;;;;;;;;;;;;;;4994032;28;19925;-88
2023/01/03 18:13:50;;;;;;;;;;;;;;;;;;4994202;28;19922;-92
2023/01/03 18:16:16;;;;;;;;;;;;;;;;;;4978566;28;19929;-90
2023/01/03 18:18:43;;;;;;;;;;;;;;;;;;4994519;28;19922;-93
2023/01/03 18:21:09;;;;;;;;;;;;;;;;;;4978243;28;19921;-91
2023/01/03 18:23:35;;;;;;;;;;;;;;;;;;4978607;28;19925;-89
2023/01/03 18:26:00;;;;;;;;;;;;;;;;;;4977752;28;19921;-88
2023/01/03 18:28:26;;;;;;;;;;;;;;;;;;4977493;28;19968;-89
2023/01/03 18:30:52;;;;;;;;;;;;;;;;;;4977659;28;19926;-89
2023/01/03 18:33:18;;;;;;;;;;;;;;;;;;4977460;28;20336;-89
2023/01/03 18:35:47;;;;;;;;;;;;;;;;;;4996767;28;19925;-88
2023/01/03 18:38:13;;;;;;;;;;;;;;;;;;4996720;28;19933;-89
2023/01/03 18:40:39;;;;;;;;;;;;;;;;;;5012866;28;20237;-89
2023/01/03 18:43:08;;;;;;;;;;;;;;;;;;4995920;28;19922;-89
2023/01/03 18:45:34;;;;;;;;;;;;;;;;;;4996817;28;19925;-89
2023/01/03 18:48:00;;;;;;;;;;;;;;;;;;4997336;28;20276;-88
2023/01/03 18:50:26;;;;;;;;;;;;;;;;;;4996136;28;19928;-89
2023/01/03 18:52:52;;;;;;;;;;;;;;;;;;4996710;28;20008;-87
2023/01/03 18:55:18;;;;;;;;;;;;;;;;;;4980298;28;19932;-88
2023/01/03 18:57:44;;;;;;;;;;;;;;;;;;4980089;28;19925;-87
2023/01/03 19:00:09;;;;;;;;;;;;;;;;;;4996234;28;19925;-87
2023/01/03 19:02:35;;;;;;;;;;;;;;;;;;4980030;28;19944;-88
2023/01/03 19:05:01;;;;;;;;;;;;;;;;;;4996078;28;19976;-88
2023/01/03 19:07:27;;;;;;;;;;;;;;;;;;4979965;28;19925;-88
2023/01/03 19:09:53;;;;;;;;;;;;;;;;;;4980152;28;20281;-87
2023/01/03 19:12:19;;;;;;;;;;;;;;;;;;4996100;28;20380;-87
2023/01/03 19:14:45;;;;;;;;;;;;;;;;;;4979638;28;19926;-88
2023/01/03 19:17:11;;;;;;;;;;;;;;;;;;4996352;28;19921;-89
2023/01/03 19:19:37;;;;;;;;;;;;;;;;;;4979932;28;19929;-87
2023/01/03 19:22:03;;;;;;;;;;;;;;;;;;4995832;28;19921;-88
2023/01/03 19:24:28;;;;;;;;;;;;;;;;;;4979539;28;19929;-87
2023/01/03 19:26:54;;;;;;;;;;;;;;;;;;4979716;28;19928;-89
2023/01/03 19:29:20;;;;;;;;;;;;;;;;;;4995759;28;19922;-88
2023/01/03 19:31:46;;;;;;;;;;;;;;;;;;4996048;28;19928;-89
2023/01/03 19:34:12;;;;;;;;;;;;;;;;;;4995572;28;20400;-92
2023/01/03 19:36:38;;;;;;;;;;;;;;;;;;4996601;28;19921;-88
2023/01/03 19:39:04;;;;;;;;;;;;;;;;;;4995594;28;19985;-87
2023/01/03 19:41:30;;;;;;;;;;;;;;;;;;4979622;28;19928;-89
2023/01/03 19:43:56;;;;;;;;;;;;;;;;;;4979626;28;19921;-87
2023/01/03 19:46:22;;;;;;;;;;;;;;;;;;4995630;28;19921;-89
2023/01/03 19:48:48;;;;;;;;;;;;;;;;;;4979356;28;19995;-87
2023/01/03 19:51:14;;;;;;;;;;;;;;;;;;4979684;28;19976;-92
2023/01/03 19:53:42;;;;;;;;;;;;;;;;;;4997058;28;19965;-90
2023/01/03 19:56:08;;;;;;;;;;;;;;;;;;4979767;28;19933;-89
2023/01/03 19:58:34;;;;;;;;;;;;;;;;;;4979140;28;19928;-90
2023/01/03 20:01:00;;;;;;;;;;;;;;;;;;4979673;28;19921;-90
2023/01/03 20:03:26;;;;;;;;;;;;;;;;;;4995728;28;19921;-90
2023/01/03 20:05:52;;;;;;;;;;;;;;;;;;4979367;28;19921;-90
2023/01/03 20:08:18;;;;;;;;;;;;;;;;;;4979332;28;20368;-91
2023/01/03 20:10:44;;;;;;;;;;;;;;;;;;4979002;28;20376;-90
2023/01/03 20:13:10;;;;;;;;;;;;;;;;;;4979307;28;19926;-90
2023/01/03 20:15:35;;;;;;;;;;;;;;;;;;4978828;28;19926;-90
2023/01/03 20:18:02;;;;;;;;;;;;;;;;;;4994695;28;19922;-89
2023/01/03 20:20:28;;;;;;;;;;;;;;;;;;4995122;28;19921;-89
2023/01/03 20:22:54;;;;;;;;;;;;;;;;;;4995194;28;20349;-91
2023/01/03 20:25:20;;;;;;;;;;;;;;;;;;4978842;28;20024;-89
2023/01/03 20:27:46;;;;;;;;;;;;;;;;;;4978634;28;19932;-89
2023/01/03 20:30:12;;;;;;;;;;;;;;;;;;4979047;28;19929;-92
2023/01/03 20:32:38;;;;;;;;;;;;;;;;;;4974002;28;19926;-88
2023/01/03 20:35:04;;;;;;;;;;;;;;;;;;4992554;28;20278;-92
2023/01/03 20:37:30;;;;;;;;;;;;;;;;;;5010851;28;19921;-89
2023/01/03 20:39:56;;;;;;;;;;;;;;;;;;4978229;28;19921;-91
2023/01/03 20:42:23;;;;;;;;;;;;;;;;;;4994598;28;19921;-91
2023/01/03 20:44:50;;;;;;;;;;;;;;;;;;4995577;28;19925;-92
2023/01/03 20:47:16;;;;;;;;;;;;;;;;;;5011225;28;20368;-90
2023/01/03 20:49:43;;;;;;;;;;;;;;;;;;4994303;28;19995;-92
2023/01/03 20:52:10;;;;;;;;;;;;;;;;;;4995128;28;19928;-91
2023/01/03 20:54:36;;;;;;;;;;;;;;;;;;5010955;28;19976;-91
2023/01/03 20:57:03;;;;;;;;;;;;;;;;;;4994564;28;20221;-90
2023/01/03 20:59:30;;;;;;;;;;;;;;;;;;4994745;28;20377;-90
2023/01/03 21:01:56;;;;;;;;;;;;;;;;;;4995028;28;20253;-90
2023/01/03 21:04:22;;;;;;;;;;;;;;;;;;4994212;28;19921;-88
2023/01/03 21:06:51;;;;;;;;;;;;;;;;;;5014006;28;19928;-91
2023/01/03 21:09:17;;;;;;;;;;;;;;;;;;4998150;28;19928;-90
2023/01/03 21:11:45;;;;;;;;;;;;;;;;;;4994807;28;19922;-91
2023/01/03 21:14:12;;;;;;;;;;;;;;;;;;5009768;28;19977;-90
2023/01/03 21:16:40;;;;;;;;;;;;;;;;;;5006908;28;19984;-93
2023/01/03 21:19:06;;;;;;;;;;;;;;;;;;5006706;28;20365;-96
2023/01/03 21:21:35;;;;;;;;;;;;;;;;;;5023082;28;19972;-95
2023/01/03 21:24:01;;;;;;;;;;;;;;;;;;5019945;28;19921;-93
2023/01/03 21:26:27;;;;;;;;;;;;;;;;;;4999261;28;19967;-93
2023/01/03 21:28:53;;;;;;;;;;;;;;;;;;4998838;28;20376;-93
2023/01/03 21:31:19;;;;;;;;;;;;;;;;;;4999313;28;19937;-93
2023/01/03 21:33:44;;;;;;;;;;;;;;;;;;4998506;28;20451;-91
2023/01/03 21:36:10;;;;;;;;;;;;;;;;;;4998718;28;20268;-92
2023/01/03 21:38:36;;;;;;;;;;;;;;;;;;5014848;28;20284;-92
2023/01/03 21:41:02;;;;;;;;;;;;;;;;;;4998899;28;19922;-91
2023/01/03 21:43:28;;;;;;;;;;;;;;;;;;4998822;28;19968;-92
2023/01/03 21:45:57;;;;;;;;;;;;;;;;;;4998519;28;19922;-92
2023/01/03 21:48:23;;;;;;;;;;;;;;;;;;4999029;28;20292;-92
2023/01/03 21:50:50;;;;;;;;;;;;;;;;;;4998690;28;19922;-92
2023/01/03 21:53:16;;;;;;;;;;;;;;;;;;4999054;28;19929;-93
2023/01/03 21:55:42;;;;;;;;;;;;;;;;;;5014578;28;19925;-91
2023/01/03 21:58:08;;;;;;;;;;;;;;;;;;4998291;28;19921;-92
2023/01/03 22:00:34;;;;;;;;;;;;;;;;;;4998053;28;20387;-91
2023/01/03 22:05:45;;;;;;;;;;;;;;;;;;4998114;28;19922;-93
2023/01/03 22:08:11;;;;;;;;;;;;;;;;;;4997893;28;19971;-92
2023/01/03 22:10:37;;;;;;;;;;;;;;;;;;4998461;28;19922;-93
2023/01/03 22:13:03;;;;;;;;;;;;;;;;;;5014447;28;19928;-93
2023/01/03 22:15:30;;;;;;;;;;;;;;;;;;4998441;28;20292;-93
2023/01/03 22:17:56;;;;;;;;;;;;;;;;;;5013480;28;20020;-94
2023/01/03 22:20:21;;;;;;;;;;;;;;;;;;4998107;28;20459;-93
2023/01/03 22:22:47;;;;;;;;;;;;;;;;;;4997838;28;20015;-93
2023/01/03 22:25:14;;;;;;;;;;;;;;;;;;4997536;28;19921;-94
2023/01/03 22:27:40;;;;;;;;;;;;;;;;;;4997901;28;20373;-92
2023/01/03 22:30:06;;;;;;;;;;;;;;;;;;4997952;28;19975;-93
2023/01/03 22:32:32;;;;;;;;;;;;;;;;;;4998345;28;19967;-93
2023/01/03 22:34:58;;;;;;;;;;;;;;;;;;4997400;28;19930;-93
2023/01/03 22:37:24;;;;;;;;;;;;;;;;;;5013950;28;20016;-93
2023/01/03 22:39:50;;;;;;;;;;;;;;;;;;4997704;28;20008;-92
2023/01/03 22:42:16;;;;;;;;;;;;;;;;;;5014209;28;19956;-93
2023/01/03 22:44:41;;;;;;;;;;;;;;;;;;5014130;28;20025;-93
2023/01/03 22:47:10;;;;;;;;;;;;;;;;;;4997743;28;19922;-94
2023/01/03 22:49:36;;;;;;;;;;;;;;;;;;4997670;28;19971;-92
2023/01/03 22:52:02;;;;;;;;;;;;;;;;;;4997657;28;19925;-92
2023/01/03 22:54:29;;;;;;;;;;;;;;;;;;4997486;28;19935;-92
2023/01/03 22:56:56;;;;;;;;;;;;;;;;;;4997517;28;19980;-94
2023/01/03 22:59:22;;;;;;;;;;;;;;;;;;4997501;28;19921;-92
2023/01/03 23:01:48;;;;;;;;;;;;;;;;;;4997363;28;20040;-93
2023/01/03 23:04:14;;;;;;;;;;;;;;;;;;4997434;28;19968;-93
2023/01/03 23:06:40;;;;;;;;;;;;;;;;;;5013751;28;20365;-93
2023/01/03 23:09:06;;;;;;;;;;;;;;;;;;4997286;28;19987;-93
2023/01/03 23:14:17;;;;;;;;;;;;;;;;;;4997537;28;20373;-93
2023/01/03 23:16:47;;;;;;;;;;;;;;;;;;4997281;28;19968;-93
2023/01/03 23:19:13;;;;;;;;;;;;;;;;;;5012865;28;19965;-93
2023/01/03 23:21:39;;;;;;;;;;;;;;;;;;4996886;28;20372;-92
2023/01/03 23:24:05;;;;;;;;;;;;;;;;;;4997477;28;19928;-94